createdAt,value
2022-11-13T00:02:20.587Z,10.99
2022-11-13T00:05:06.369Z,10.97
2022-11-13T00:07:51.576Z,10.97
2022-11-13T00:10:36.918Z,10.95
2022-11-13T00:13:25.030Z,10.92
2022-11-13T00:16:17.718Z,10.91
2022-11-13T00:19:03.075Z,10.88
2022-11-13T00:21:48.347Z,10.86
2022-11-13T00:24:33.847Z,10.85
2022-11-13T00:27:19.201Z,10.83
2022-11-13T00:30:05.861Z,10.81
2022-11-13T00:32:50.910Z,10.80
2022-11-13T00:35:36.147Z,10.80
2022-11-13T00:38:21.549Z,10.78
2022-11-13T00:41:06.828Z,10.76
2022-11-13T00:43:52.318Z,10.74
2022-11-13T00:46:37.333Z,10.73
2022-11-13T00:49:22.733Z,10.71
2022-11-13T00:52:08.026Z,10.70
2022-11-13T00:54:53.281Z,10.69
2022-11-13T00:57:38.638Z,10.67
2022-11-13T01:00:23.914Z,10.66
2022-11-13T01:03:10.020Z,10.64
2022-11-13T01:05:55.191Z,10.65
2022-11-13T01:08:40.766Z,10.65
2022-11-13T01:11:28.050Z,10.62
2022-11-13T01:14:12.989Z,10.63
2022-11-13T01:16:58.284Z,10.61
2022-11-13T01:19:43.609Z,10.58
2022-11-13T01:22:28.879Z,10.57
2022-11-13T01:25:14.424Z,10.57
2022-11-13T01:27:59.698Z,10.57
2022-11-13T01:30:45.175Z,10.56
2022-11-13T01:33:30.477Z,10.55
2022-11-13T01:36:22.044Z,10.53
2022-11-13T01:39:07.399Z,10.54
2022-11-13T01:41:52.749Z,10.52
2022-11-13T01:44:57.556Z,10.52
2022-11-13T01:47:42.962Z,10.49
2022-11-13T01:50:28.691Z,10.50
2022-11-13T01:53:13.930Z,10.47
2022-11-13T01:55:59.521Z,10.46
2022-11-13T01:58:52.166Z,10.44
2022-11-13T02:01:37.328Z,10.44
2022-11-13T02:04:22.810Z,10.42
2022-11-13T02:07:10.381Z,10.39
2022-11-13T02:09:57.443Z,10.39
2022-11-13T02:12:47.997Z,10.37
2022-11-13T02:15:34.162Z,10.38
2022-11-13T02:18:21.938Z,10.36
2022-11-13T02:21:38.709Z,10.36
2022-11-13T02:24:25.887Z,10.34
2022-11-13T02:27:21.407Z,10.32
2022-11-13T02:30:19.768Z,10.30
2022-11-13T02:33:30.085Z,10.31
2022-11-13T02:36:15.714Z,10.27
2022-11-13T02:39:04.486Z,10.25
2022-11-13T02:41:49.883Z,10.22
2022-11-13T02:44:35.276Z,10.23
2022-11-13T02:47:20.687Z,10.21
2022-11-13T02:50:06.512Z,10.19
2022-11-13T02:52:51.489Z,10.20
2022-11-13T02:55:37.026Z,10.17
2022-11-13T02:58:22.259Z,10.18
2022-11-13T03:01:07.707Z,10.16
2022-11-13T03:04:06.154Z,10.14
2022-11-13T03:06:52.019Z,10.15
2022-11-13T03:09:37.393Z,10.14
2022-11-13T03:12:22.858Z,10.14
2022-11-13T03:15:08.959Z,10.12
2022-11-13T03:17:53.995Z,10.12
2022-11-13T03:20:41.858Z,10.10
2022-11-13T03:23:40.214Z,10.11
2022-11-13T03:26:28.423Z,10.09
2022-11-13T03:29:13.839Z,10.08
2022-11-13T03:31:59.379Z,10.08
2022-11-13T03:34:44.558Z,10.06
2022-11-13T03:37:29.899Z,10.07
2022-11-13T03:40:15.114Z,10.05
2022-11-13T03:43:00.454Z,10.06
2022-11-13T03:45:47.205Z,10.04
2022-11-13T03:48:33.552Z,10.04
2022-11-13T03:51:18.758Z,10.03
2022-11-13T03:54:04.093Z,10.02
2022-11-13T03:56:49.519Z,10.02
2022-11-13T03:59:34.764Z,10.01
2022-11-13T04:02:20.193Z,10.00
2022-11-13T04:05:06.580Z,10.00
2022-11-13T04:07:51.775Z,9.99
2022-11-13T04:10:37.198Z,10.00
2022-11-13T04:13:22.398Z,9.98
2022-11-13T04:16:07.953Z,9.98
2022-11-13T04:18:53.236Z,9.96
2022-11-13T04:21:38.511Z,9.96
2022-11-13T04:24:23.882Z,9.93
2022-11-13T04:27:09.143Z,9.92
2022-11-13T04:29:54.414Z,9.93
2022-11-13T04:32:39.730Z,9.91
2022-11-13T04:35:25.072Z,9.90
2022-11-13T04:38:10.628Z,9.89
2022-11-13T04:41:15.814Z,9.88
2022-11-13T04:44:00.975Z,9.88
2022-11-13T04:46:46.542Z,9.86
2022-11-13T04:49:38.995Z,9.85
2022-11-13T04:52:24.040Z,9.83
2022-11-13T04:55:10.515Z,9.83
2022-11-13T04:57:55.792Z,9.82
2022-11-13T05:00:41.186Z,9.82
2022-11-13T05:03:26.378Z,9.82
2022-11-13T05:06:11.806Z,9.80
2022-11-13T05:08:57.123Z,9.79
2022-11-13T05:11:42.542Z,9.79
2022-11-13T05:14:28.038Z,9.78
2022-11-13T05:17:13.795Z,9.78
2022-11-13T05:19:59.042Z,9.78
2022-11-13T05:22:44.232Z,9.77
2022-11-13T05:25:30.145Z,9.76
2022-11-13T05:28:15.925Z,9.75
2022-11-13T05:31:05.879Z,9.74
2022-11-13T05:33:51.459Z,9.74
2022-11-13T05:36:36.997Z,9.73
2022-11-13T05:39:22.334Z,9.71
2022-11-13T05:42:07.653Z,9.71
2022-11-13T05:44:52.945Z,9.71
2022-11-13T05:47:38.371Z,9.71
2022-11-13T05:50:23.822Z,9.69
2022-11-13T05:53:09.034Z,9.69
2022-11-13T05:55:54.570Z,9.69
2022-11-13T05:58:40.055Z,9.68
2022-11-13T06:01:31.864Z,9.66
2022-11-13T06:04:17.063Z,9.65
2022-11-13T06:07:02.582Z,9.64
2022-11-13T06:09:47.786Z,9.63
2022-11-13T06:12:33.163Z,9.62
2022-11-13T06:15:18.891Z,9.62
2022-11-13T06:18:04.444Z,9.60
2022-11-13T06:20:50.349Z,9.60
2022-11-13T06:23:37.267Z,9.59
2022-11-13T06:26:24.965Z,9.59
2022-11-13T06:29:11.774Z,9.57
2022-11-13T06:31:57.012Z,9.56
2022-11-13T06:34:42.524Z,9.56
2022-11-13T06:37:31.418Z,9.56
2022-11-13T06:40:19.141Z,9.56
2022-11-13T06:43:04.218Z,9.55
2022-11-13T06:45:49.571Z,9.56
2022-11-13T06:48:35.059Z,9.56
2022-11-13T06:51:25.682Z,9.55
2022-11-13T06:54:10.831Z,9.55
2022-11-13T06:56:56.121Z,9.54
2022-11-13T06:59:43.576Z,9.54
2022-11-13T07:02:28.852Z,9.53
2022-11-13T07:05:14.218Z,9.53
2022-11-13T07:07:59.542Z,9.53
2022-11-13T07:10:53.684Z,9.51
2022-11-13T07:13:39.759Z,9.52
2022-11-13T07:16:31.161Z,9.52
2022-11-13T07:19:24.073Z,9.51
2022-11-13T07:22:09.395Z,9.51
2022-11-13T07:24:54.782Z,9.51
2022-11-13T07:27:45.047Z,9.51
2022-11-13T07:30:30.280Z,9.53
2022-11-13T07:33:15.683Z,9.54
2022-11-13T07:36:01.553Z,9.54
2022-11-13T07:38:46.985Z,9.41
2022-11-13T07:41:32.148Z,9.25
2022-11-13T07:44:39.998Z,9.08
2022-11-13T07:47:23.300Z,8.89
2022-11-13T07:50:10.991Z,8.75
2022-11-13T07:52:58.603Z,8.60
2022-11-13T07:55:43.861Z,8.48
2022-11-13T07:58:29.601Z,8.45
2022-11-13T08:01:15.357Z,8.36
2022-11-13T08:04:00.967Z,8.17
2022-11-13T08:06:46.050Z,8.06
2022-11-13T08:09:31.996Z,8.18
2022-11-13T08:12:17.201Z,8.28
2022-11-13T08:15:02.530Z,8.42
2022-11-13T08:17:54.347Z,8.39
2022-11-13T08:20:40.019Z,8.34
2022-11-13T08:23:26.511Z,8.27
2022-11-13T08:26:11.974Z,8.26
2022-11-13T08:28:57.278Z,8.25
2022-11-13T08:31:42.869Z,8.12
2022-11-13T08:34:28.025Z,7.97
2022-11-13T08:37:13.300Z,8.00
2022-11-13T08:39:58.782Z,8.07
2022-11-13T08:42:44.136Z,8.12
2022-11-13T08:45:30.089Z,8.14
2022-11-13T08:48:15.660Z,8.21
2022-11-13T08:51:01.194Z,8.32
2022-11-13T08:53:46.641Z,8.45
2022-11-13T08:56:31.977Z,8.42
2022-11-13T08:59:17.932Z,8.57
2022-11-13T09:02:03.070Z,8.73
2022-11-13T09:04:48.486Z,8.65
2022-11-13T09:07:34.048Z,8.66
2022-11-13T09:10:19.406Z,8.66
2022-11-13T09:13:05.758Z,8.79
2022-11-13T09:15:51.607Z,8.82
2022-11-13T09:18:36.890Z,8.72
2022-11-13T09:21:22.342Z,8.60
2022-11-13T09:24:08.163Z,8.55
2022-11-13T09:26:53.504Z,8.65
2022-11-13T09:29:36.167Z,8.82
2022-11-13T09:32:21.786Z,9.11
2022-11-13T09:38:20.185Z,9.53
2022-11-13T09:44:56.429Z,9.87
2022-11-13T09:47:44.664Z,9.92
2022-11-13T09:50:31.623Z,9.96
2022-11-13T09:53:16.945Z,10.03
2022-11-13T09:59:36.194Z,10.21
2022-11-13T10:02:30.667Z,10.16
2022-11-13T10:05:29.572Z,10.14
2022-11-13T10:08:18.927Z,10.19
2022-11-13T10:11:37.013Z,10.27
2022-11-13T10:14:46.273Z,10.36
2022-11-13T10:17:41.007Z,10.29
2022-11-13T10:20:38.519Z,10.19
2022-11-13T10:23:36.114Z,10.14
2022-11-13T10:26:24.618Z,10.06
2022-11-13T10:29:15.368Z,10.03
2022-11-13T10:32:33.734Z,10.14
2022-11-13T10:35:28.215Z,10.33
2022-11-13T10:38:22.343Z,10.58
2022-11-13T10:41:11.136Z,10.77
2022-11-13T10:43:57.289Z,10.80
2022-11-13T10:46:42.705Z,10.84
2022-11-13T10:49:30.850Z,10.90
2022-11-13T10:52:30.500Z,10.90
2022-11-13T10:55:34.067Z,10.89
2022-11-13T10:58:20.165Z,10.73
2022-11-13T11:01:35.467Z,10.65
2022-11-13T11:04:27.560Z,10.70
2022-11-13T11:07:21.944Z,10.82
2022-11-13T11:10:29.604Z,10.92
2022-11-13T11:13:22.690Z,11.01
2022-11-13T11:16:08.597Z,11.01
2022-11-13T11:18:57.187Z,11.02
2022-11-13T11:21:43.409Z,11.06
2022-11-13T11:24:34.125Z,11.06
2022-11-13T11:27:50.173Z,11.05
2022-11-13T11:30:53.554Z,11.09
2022-11-13T11:33:49.181Z,11.06
2022-11-13T11:36:44.747Z,11.06
2022-11-13T11:39:51.946Z,10.98
2022-11-13T11:42:50.587Z,11.07
2022-11-13T11:45:41.278Z,11.12
2022-11-13T11:48:30.974Z,11.27
2022-11-13T11:51:26.981Z,11.36
2022-11-13T11:54:56.949Z,11.44
2022-11-13T11:57:56.675Z,11.34
2022-11-13T12:00:49.775Z,11.35
2022-11-13T12:03:59.459Z,11.40
2022-11-13T12:06:57.056Z,11.43
2022-11-13T12:09:52.407Z,11.47
2022-11-13T12:12:56.687Z,11.46
2022-11-13T12:16:01.025Z,11.61
2022-11-13T12:18:54.613Z,11.71
2022-11-13T12:22:15.302Z,11.72
2022-11-13T12:25:18.905Z,11.71
2022-11-13T12:28:47.150Z,11.82
2022-11-13T12:31:53.981Z,11.95
2022-11-13T12:34:45.149Z,11.87
2022-11-13T12:37:51.820Z,11.87
2022-11-13T12:40:49.771Z,11.82
2022-11-13T12:43:34.843Z,11.74
2022-11-13T12:46:20.486Z,11.66
2022-11-13T12:49:23.885Z,11.58
2022-11-13T12:52:15.665Z,11.43
2022-11-13T12:55:06.496Z,11.39
2022-11-13T12:57:52.179Z,11.46
2022-11-13T13:00:40.232Z,11.49
2022-11-13T13:03:41.279Z,11.49
2022-11-13T13:06:26.401Z,11.64
2022-11-13T13:09:33.130Z,11.60
2022-11-13T13:12:29.943Z,11.53
2022-11-13T13:15:29.710Z,11.59
2022-11-13T13:18:18.161Z,11.65
2022-11-13T13:21:06.437Z,11.70
2022-11-13T13:23:56.777Z,11.65
2022-11-13T13:26:46.911Z,11.49
2022-11-13T13:29:33.856Z,11.31
2022-11-13T13:32:26.699Z,11.16
2022-11-13T13:35:32.327Z,11.01
2022-11-13T13:38:35.362Z,10.82
2022-11-13T13:41:39.218Z,10.74
2022-11-13T13:44:51.039Z,10.60
2022-11-13T13:47:41.557Z,10.61
2022-11-13T13:50:31.830Z,10.51
2022-11-13T13:53:18.982Z,10.47
2022-11-13T13:56:04.967Z,10.44
2022-11-13T13:58:50.981Z,10.37
2022-11-13T14:01:36.737Z,10.29
2022-11-13T14:04:23.441Z,10.32
2022-11-13T14:07:29.019Z,10.40
2022-11-13T14:10:18.774Z,10.47
2022-11-13T14:13:04.622Z,10.45
2022-11-13T14:15:50.218Z,10.39
2022-11-13T14:18:35.970Z,10.33
2022-11-13T14:21:23.028Z,10.16
2022-11-13T14:24:21.674Z,10.03
2022-11-13T14:27:08.678Z,9.98
2022-11-13T14:29:59.522Z,10.05
2022-11-13T14:32:47.130Z,10.14
2022-11-13T14:35:32.661Z,10.18
2022-11-13T14:38:23.687Z,10.17
2022-11-13T14:41:35.412Z,10.04
2022-11-13T14:44:32.821Z,10.02
2022-11-13T14:47:29.438Z,9.98
2022-11-13T14:50:23.096Z,9.90
2022-11-13T14:53:10.257Z,9.84
2022-11-13T14:55:58.298Z,9.83
2022-11-13T14:58:49.374Z,9.83
2022-11-13T15:01:34.252Z,9.92
2022-11-13T15:04:19.268Z,9.85
2022-11-13T15:07:21.553Z,9.74
2022-11-13T15:10:11.662Z,9.41
2022-11-13T15:12:57.164Z,9.23
2022-11-13T15:15:42.639Z,9.10
2022-11-13T15:18:27.807Z,9.13
2022-11-13T15:21:13.277Z,9.18
2022-11-13T15:24:01.050Z,9.15
2022-11-13T15:26:46.929Z,9.08
2022-11-13T15:29:32.830Z,9.01
2022-11-13T15:32:18.152Z,9.03
2022-11-13T15:35:05.378Z,9.08
2022-11-13T15:37:51.282Z,9.12
2022-11-13T15:40:37.910Z,9.10
2022-11-13T15:43:23.103Z,9.09
2022-11-13T15:46:14.672Z,9.05
2022-11-13T15:49:00.237Z,9.05
2022-11-13T15:51:48.453Z,8.99
2022-11-13T15:54:35.167Z,8.91
2022-11-13T15:57:30.534Z,8.82
2022-11-13T16:00:21.639Z,8.74
2022-11-13T16:03:11.744Z,8.69
2022-11-13T16:05:58.583Z,8.62
2022-11-13T16:08:44.204Z,8.54
2022-11-13T16:11:32.057Z,8.50
2022-11-13T16:14:21.894Z,8.42
2022-11-13T16:17:20.317Z,8.36
2022-11-13T16:20:07.797Z,8.20
2022-11-13T16:22:53.010Z,8.13
2022-11-13T16:25:38.240Z,8.16
2022-11-13T16:28:23.625Z,8.12
2022-11-13T16:31:08.934Z,8.10
2022-11-13T16:33:54.254Z,8.06
2022-11-13T16:36:39.748Z,8.07
2022-11-13T16:39:24.779Z,8.02
2022-11-13T16:42:10.530Z,8.05
2022-11-13T16:44:55.997Z,8.17
2022-11-13T16:47:41.437Z,8.29
2022-11-13T16:50:30.353Z,8.42
2022-11-13T16:53:16.158Z,8.55
2022-11-13T16:56:01.892Z,8.68
2022-11-13T16:58:47.521Z,8.79
2022-11-13T17:01:32.984Z,8.87
2022-11-13T17:04:18.226Z,8.97
2022-11-13T17:07:03.660Z,9.04
2022-11-13T17:09:58.929Z,9.10
2022-11-13T17:12:54.717Z,9.17
2022-11-13T17:15:39.816Z,9.23
2022-11-13T17:18:25.271Z,9.27
2022-11-13T17:21:11.281Z,9.33
2022-11-13T17:23:57.394Z,9.36
2022-11-13T17:26:42.768Z,9.40
2022-11-13T17:29:28.256Z,9.42
2022-11-13T17:32:15.019Z,9.44
2022-11-13T17:35:00.741Z,9.48
2022-11-13T17:37:46.004Z,9.50
2022-11-13T17:40:31.446Z,9.52
2022-11-13T17:43:16.703Z,9.55
2022-11-13T17:46:02.217Z,9.55
2022-11-13T17:48:48.156Z,9.55
2022-11-13T17:51:33.333Z,9.58
2022-11-13T17:54:18.780Z,9.61
2022-11-13T17:57:05.736Z,9.62
2022-11-13T17:59:51.149Z,9.64
2022-11-13T18:02:36.449Z,9.66
2022-11-13T18:05:22.466Z,9.68
2022-11-13T18:08:08.301Z,9.70
2022-11-13T18:10:53.839Z,9.72
2022-11-13T18:13:39.140Z,9.74
2022-11-13T18:16:31.452Z,9.74
2022-11-13T18:19:16.810Z,9.76
2022-11-13T18:22:02.232Z,9.77
2022-11-13T18:24:48.140Z,9.78
2022-11-13T18:27:33.525Z,9.80
2022-11-13T18:30:19.127Z,9.81
2022-11-13T18:33:04.692Z,9.81
2022-11-13T18:35:49.907Z,9.84
2022-11-13T18:38:35.780Z,9.84
2022-11-13T18:41:22.431Z,9.86
2022-11-13T18:44:08.043Z,9.87
2022-11-13T18:46:54.019Z,9.88
2022-11-13T18:49:39.636Z,9.88
2022-11-13T18:52:25.041Z,9.90
2022-11-13T18:55:10.347Z,9.91
2022-11-13T18:57:55.735Z,9.92
2022-11-13T19:00:41.170Z,9.92
2022-11-13T19:03:26.875Z,9.94
2022-11-13T19:06:15.096Z,9.94
2022-11-13T19:09:07.005Z,9.96
2022-11-13T19:11:54.268Z,9.98
2022-11-13T19:14:39.583Z,10.00
2022-11-13T19:17:24.950Z,10.00
2022-11-13T19:20:10.457Z,10.01
2022-11-13T19:22:55.937Z,10.03
2022-11-13T19:25:41.171Z,10.03
2022-11-13T19:28:26.880Z,10.04
2022-11-13T19:31:18.218Z,10.04
2022-11-13T19:34:06.153Z,10.06
2022-11-13T19:36:52.608Z,10.08
2022-11-13T19:39:38.165Z,10.10
2022-11-13T19:42:23.411Z,10.10
2022-11-13T19:45:09.053Z,10.11
2022-11-13T19:47:54.078Z,10.12
2022-11-13T19:50:39.523Z,10.14
2022-11-13T19:53:25.058Z,10.14
2022-11-13T19:56:10.301Z,10.16
2022-11-13T19:58:56.207Z,10.17
2022-11-13T20:01:42.168Z,10.18
2022-11-13T20:04:27.367Z,10.19
2022-11-13T20:07:12.884Z,10.20
2022-11-13T20:09:58.257Z,10.21
2022-11-13T20:12:43.655Z,10.22
2022-11-13T20:15:29.121Z,10.25
2022-11-13T20:18:14.433Z,10.25
2022-11-13T20:21:00.168Z,10.25
2022-11-13T20:23:45.572Z,10.27
2022-11-13T20:26:31.125Z,10.28
2022-11-13T20:29:16.921Z,10.29
2022-11-13T20:32:02.197Z,10.28
2022-11-13T20:34:47.644Z,10.29
2022-11-13T20:37:33.402Z,10.29
2022-11-13T20:40:18.614Z,10.30
2022-11-13T20:43:03.930Z,10.30
2022-11-13T20:45:49.399Z,10.30
2022-11-13T20:48:35.217Z,10.30
2022-11-13T20:51:22.994Z,10.31
2022-11-13T20:54:08.007Z,10.30
2022-11-13T20:56:53.416Z,10.31
2022-11-13T20:59:38.604Z,10.31
2022-11-13T21:02:24.070Z,10.31
2022-11-13T21:05:09.475Z,10.30
2022-11-13T21:07:54.803Z,10.31
2022-11-13T21:10:40.590Z,10.29
2022-11-13T21:13:25.930Z,10.29
2022-11-13T21:16:11.555Z,10.29
2022-11-13T21:18:58.230Z,10.29
2022-11-13T21:21:43.827Z,10.29
2022-11-13T21:24:29.244Z,10.28
2022-11-13T21:27:14.628Z,10.27
2022-11-13T21:30:00.049Z,10.26
2022-11-13T21:32:45.401Z,10.25
2022-11-13T21:35:30.773Z,10.23
2022-11-13T21:38:16.089Z,10.22
2022-11-13T21:41:23.409Z,10.20
2022-11-13T21:44:10.659Z,10.21
2022-11-13T21:46:56.154Z,10.19
2022-11-13T21:49:41.794Z,10.18
2022-11-13T21:52:27.417Z,10.19
2022-11-13T21:55:12.913Z,10.19
2022-11-13T21:57:58.086Z,10.18
2022-11-13T22:00:44.410Z,10.18
2022-11-13T22:03:29.874Z,10.18
2022-11-13T22:06:22.838Z,10.16
2022-11-13T22:09:15.157Z,10.16
2022-11-13T22:12:00.917Z,10.17
2022-11-13T22:14:45.961Z,10.17
2022-11-13T22:17:31.263Z,10.16
2022-11-13T22:20:16.680Z,10.14
2022-11-13T22:23:05.430Z,10.13
2022-11-13T22:25:54.534Z,10.13
2022-11-13T22:28:43.842Z,10.13
2022-11-13T22:31:30.954Z,10.11
2022-11-13T22:34:16.094Z,10.11
2022-11-13T22:37:01.524Z,10.11
2022-11-13T22:39:46.898Z,10.10
2022-11-13T22:42:32.272Z,10.10
2022-11-13T22:45:23.811Z,10.09
2022-11-13T22:48:12.565Z,10.09
2022-11-13T22:51:06.677Z,10.09
2022-11-13T22:54:04.648Z,10.08
2022-11-13T22:56:50.187Z,10.09
2022-11-13T22:59:35.562Z,10.08
2022-11-13T23:02:20.881Z,10.07
2022-11-13T23:05:06.380Z,10.07
2022-11-13T23:07:52.939Z,10.07
2022-11-13T23:10:38.454Z,10.07
2022-11-13T23:13:25.076Z,10.07
2022-11-13T23:16:11.615Z,10.06
2022-11-13T23:18:57.983Z,10.07
2022-11-13T23:21:46.198Z,10.06
2022-11-13T23:24:31.865Z,10.06
2022-11-13T23:27:16.913Z,10.05
2022-11-13T23:30:02.342Z,10.05
2022-11-13T23:32:47.747Z,10.05
2022-11-13T23:35:33.272Z,10.05
2022-11-13T23:38:18.695Z,10.04
2022-11-13T23:41:04.134Z,10.04
2022-11-13T23:46:54.443Z,10.03
2022-11-13T23:49:39.613Z,10.02
2022-11-13T23:52:24.922Z,10.02
2022-11-13T23:55:10.452Z,10.00
2022-11-13T23:58:01.774Z,10.00
